createdAt,value
2023-03-29T00:00:50.970Z,146.61
2023-03-29T00:01:51.006Z,150.78
2023-03-29T00:02:51.157Z,151.96
2023-03-29T00:03:51.171Z,150.25
2023-03-29T00:04:51.167Z,143.87
2023-03-29T00:05:51.204Z,154.42
2023-03-29T00:06:51.269Z,155.88
2023-03-29T00:07:51.305Z,151.82
2023-03-29T00:08:51.376Z,155.87
2023-03-29T00:09:51.433Z,153.51
2023-03-29T00:10:51.495Z,148.81
2023-03-29T00:11:51.539Z,150.49
2023-03-29T00:12:51.588Z,149.84
2023-03-29T00:13:51.623Z,149.49
2023-03-29T00:14:51.679Z,147.49
2023-03-29T00:15:51.774Z,148.11
2023-03-29T00:16:51.825Z,144.78
2023-03-29T00:17:51.865Z,152.63
2023-03-29T00:18:51.940Z,148.42
2023-03-29T00:19:51.990Z,145.26
2023-03-29T00:20:52.049Z,143.31
2023-03-29T00:21:52.076Z,140.40
2023-03-29T00:22:52.136Z,148.54
2023-03-29T00:23:52.213Z,135.78
2023-03-29T00:24:52.266Z,128.87
2023-03-29T00:25:52.357Z,141.22
2023-03-29T00:26:52.390Z,138.13
2023-03-29T00:27:52.452Z,139.51
2023-03-29T00:28:52.545Z,131.70
2023-03-29T00:29:52.578Z,135.93
2023-03-29T00:30:52.683Z,144.38
2023-03-29T00:31:52.836Z,141.80
2023-03-29T00:32:52.767Z,147.25
2023-03-29T00:33:52.788Z,143.18
2023-03-29T00:34:52.862Z,145.25
2023-03-29T00:35:52.925Z,140.39
2023-03-29T00:36:53.011Z,144.80
2023-03-29T00:37:53.068Z,144.39
2023-03-29T00:38:53.064Z,138.21
2023-03-29T00:39:53.126Z,140.53
2023-03-29T00:40:53.197Z,144.63
2023-03-29T00:41:53.266Z,151.12
2023-03-29T00:42:53.301Z,137.40
2023-03-29T00:43:53.362Z,140.58
2023-03-29T00:44:53.412Z,135.31
2023-03-29T00:45:53.600Z,144.11
2023-03-29T00:46:53.584Z,136.46
2023-03-29T00:47:53.626Z,136.67
2023-03-29T00:48:53.653Z,141.83
2023-03-29T00:49:53.722Z,140.76
2023-03-29T00:50:53.760Z,144.85
2023-03-29T00:51:53.838Z,142.24
2023-03-29T00:52:53.889Z,137.01
2023-03-29T00:53:53.947Z,143.55
2023-03-29T00:54:54.013Z,142.72
2023-03-29T00:55:54.078Z,145.70
2023-03-29T00:56:54.150Z,149.18
2023-03-29T00:57:54.180Z,142.60
2023-03-29T00:58:54.240Z,147.38
2023-03-29T00:59:54.293Z,150.06
2023-03-29T01:00:54.334Z,142.93
2023-03-29T01:01:54.797Z,147.67
2023-03-29T01:02:54.615Z,150.32
2023-03-29T01:03:54.726Z,152.38
2023-03-29T01:04:54.615Z,155.36
2023-03-29T01:05:54.634Z,158.13
2023-03-29T01:06:54.733Z,158.30
2023-03-29T01:07:54.737Z,156.82
2023-03-29T01:08:54.801Z,152.49
2023-03-29T01:09:54.874Z,151.12
2023-03-29T01:10:54.917Z,151.11
2023-03-29T01:11:54.967Z,145.77
2023-03-29T01:12:55.046Z,154.48
2023-03-29T01:13:55.093Z,145.53
2023-03-29T01:14:55.171Z,134.96
2023-03-29T01:15:55.260Z,144.41
2023-03-29T01:16:55.367Z,139.86
2023-03-29T01:17:55.450Z,142.69
2023-03-29T01:18:55.418Z,140.97
2023-03-29T01:19:55.467Z,140.21
2023-03-29T01:20:55.546Z,130.46
2023-03-29T01:21:55.608Z,140.15
2023-03-29T01:22:55.676Z,137.41
2023-03-29T01:23:55.734Z,139.85
2023-03-29T01:24:55.797Z,145.24
2023-03-29T01:25:55.855Z,142.21
2023-03-29T01:26:55.923Z,148.15
2023-03-29T01:27:55.980Z,146.01
2023-03-29T01:28:56.064Z,144.79
2023-03-29T01:29:56.113Z,150.93
2023-03-29T01:30:56.188Z,149.56
2023-03-29T01:31:56.278Z,138.65
2023-03-29T01:32:56.371Z,144.02
2023-03-29T01:33:56.345Z,139.47
2023-03-29T01:34:56.411Z,144.17
2023-03-29T01:35:56.515Z,144.52
2023-03-29T01:36:56.567Z,141.77
2023-03-29T01:37:56.611Z,146.47
2023-03-29T01:38:56.697Z,143.22
2023-03-29T01:39:56.740Z,131.08
2023-03-29T01:40:56.795Z,137.40
2023-03-29T01:41:56.845Z,130.39
2023-03-29T01:42:56.942Z,135.66
2023-03-29T01:43:57.001Z,138.92
2023-03-29T01:44:57.065Z,140.38
2023-03-29T01:45:57.127Z,130.94
2023-03-29T01:46:57.174Z,132.49
2023-03-29T01:47:57.263Z,138.20
2023-03-29T01:48:57.324Z,141.54
2023-03-29T01:49:57.374Z,141.06
2023-03-29T01:50:57.441Z,132.72
2023-03-29T01:51:57.499Z,128.04
2023-03-29T01:52:57.739Z,138.21
2023-03-29T01:53:57.625Z,134.36
2023-03-29T01:54:57.700Z,138.73
2023-03-29T01:55:57.758Z,142.32
2023-03-29T01:56:57.842Z,131.84
2023-03-29T01:57:57.886Z,135.11
2023-03-29T01:58:57.936Z,127.43
2023-03-29T01:59:58.019Z,137.11
2023-03-29T02:00:58.136Z,133.06
2023-03-29T02:01:58.202Z,138.18
2023-03-29T02:02:58.315Z,140.03
2023-03-29T02:03:58.275Z,140.80
2023-03-29T02:04:58.311Z,137.19
2023-03-29T02:05:58.374Z,134.58
2023-03-29T02:06:58.457Z,130.83
2023-03-29T02:07:58.524Z,127.76
2023-03-29T02:08:58.602Z,132.10
2023-03-29T02:09:58.648Z,127.77
2023-03-29T02:10:58.702Z,134.58
2023-03-29T02:11:58.753Z,140.44
2023-03-29T02:12:58.869Z,141.64
2023-03-29T02:13:58.895Z,128.94
2023-03-29T02:14:58.952Z,137.02
2023-03-29T02:15:59.114Z,135.79
2023-03-29T02:16:59.098Z,132.79
2023-03-29T02:17:59.160Z,136.39
2023-03-29T02:18:59.201Z,132.00
2023-03-29T02:19:59.279Z,120.75
2023-03-29T02:20:59.638Z,136.35
2023-03-29T02:21:59.398Z,132.41
2023-03-29T02:22:59.465Z,130.58
2023-03-29T02:23:59.521Z,127.88
2023-03-29T02:24:59.580Z,130.04
2023-03-29T02:25:59.653Z,131.42
2023-03-29T02:26:59.715Z,123.15
2023-03-29T02:27:59.760Z,134.58
2023-03-29T02:28:59.829Z,132.55
2023-03-29T02:29:59.911Z,135.74
2023-03-29T02:31:00.226Z,127.13
2023-03-29T02:32:00.037Z,134.56
2023-03-29T02:33:00.238Z,130.71
2023-03-29T02:34:00.153Z,128.99
2023-03-29T02:35:00.234Z,135.43
2023-03-29T02:36:00.308Z,138.48
2023-03-29T02:37:00.350Z,128.81
2023-03-29T02:38:00.410Z,132.19
2023-03-29T02:39:00.471Z,137.12
2023-03-29T02:40:00.526Z,139.71
2023-03-29T02:41:00.768Z,137.67
2023-03-29T02:42:00.677Z,141.99
2023-03-29T02:43:00.726Z,142.65
2023-03-29T02:44:00.785Z,132.37
2023-03-29T02:45:00.854Z,138.09
2023-03-29T02:46:00.901Z,136.66
2023-03-29T02:47:01.005Z,140.45
2023-03-29T02:48:01.096Z,143.71
2023-03-29T02:49:01.120Z,143.14
2023-03-29T02:50:01.183Z,147.35
2023-03-29T02:51:01.488Z,148.16
2023-03-29T02:52:01.300Z,148.66
2023-03-29T02:53:01.378Z,148.34
2023-03-29T02:54:01.422Z,140.93
2023-03-29T02:55:01.477Z,147.40
2023-03-29T02:56:01.536Z,151.14
2023-03-29T02:57:01.619Z,155.21
2023-03-29T02:58:01.685Z,154.86
2023-03-29T02:59:01.731Z,153.03
2023-03-29T03:00:01.789Z,152.72
2023-03-29T03:01:02.025Z,149.71
2023-03-29T03:02:02.028Z,149.56
2023-03-29T03:03:02.194Z,150.39
2023-03-29T03:04:02.096Z,158.45
2023-03-29T03:05:02.116Z,157.35
2023-03-29T03:06:02.166Z,154.77
2023-03-29T03:07:02.245Z,155.03
2023-03-29T03:08:02.311Z,150.95
2023-03-29T03:09:02.399Z,155.64
2023-03-29T03:10:02.454Z,154.79
2023-03-29T03:11:02.782Z,150.49
2023-03-29T03:12:02.575Z,156.95
2023-03-29T03:13:02.650Z,159.26
2023-03-29T03:14:02.698Z,157.45
2023-03-29T03:15:02.775Z,149.81
2023-03-29T03:16:02.881Z,159.04
2023-03-29T03:17:04.684Z,161.72
2023-03-29T03:18:02.999Z,159.30
2023-03-29T03:19:03.010Z,161.33
2023-03-29T03:20:03.082Z,163.31
2023-03-29T03:21:03.239Z,152.87
2023-03-29T03:22:03.227Z,151.54
2023-03-29T03:23:03.277Z,154.16
2023-03-29T03:24:03.325Z,157.69
2023-03-29T03:25:03.391Z,160.03
2023-03-29T03:26:03.440Z,155.00
2023-03-29T03:27:03.538Z,156.46
2023-03-29T03:28:03.572Z,157.70
2023-03-29T03:29:03.657Z,161.10
2023-03-29T03:30:03.725Z,160.85
2023-03-29T03:31:03.889Z,158.98
2023-03-29T03:32:03.965Z,161.91
2023-03-29T03:33:03.943Z,160.71
2023-03-29T03:34:03.975Z,157.19
2023-03-29T03:35:04.018Z,160.64
2023-03-29T03:36:04.125Z,156.00
2023-03-29T03:37:04.172Z,153.78
2023-03-29T03:38:04.256Z,156.41
2023-03-29T03:39:04.277Z,162.32
2023-03-29T03:40:04.352Z,154.70
2023-03-29T03:41:04.834Z,161.27
2023-03-29T03:42:07.239Z,153.26
2023-03-29T03:43:04.495Z,157.98
2023-03-29T03:44:04.493Z,157.88
2023-03-29T03:45:04.466Z,162.78
2023-03-29T03:46:04.492Z,159.81
2023-03-29T03:47:04.446Z,163.53
2023-03-29T03:48:04.446Z,162.23
2023-03-29T03:49:04.433Z,164.58
2023-03-29T03:50:04.422Z,163.65
2023-03-29T03:51:04.657Z,152.81
2023-03-29T03:52:04.440Z,149.99
2023-03-29T03:53:04.393Z,158.32
2023-03-29T03:54:04.383Z,145.92
2023-03-29T03:55:04.400Z,147.35
2023-03-29T03:56:04.385Z,156.27
2023-03-29T03:57:04.478Z,156.76
2023-03-29T03:58:04.376Z,157.43
2023-03-29T03:59:04.365Z,147.74
2023-03-29T04:00:04.356Z,139.91
2023-03-29T04:01:04.381Z,141.71
2023-03-29T04:02:04.406Z,144.71
2023-03-29T04:03:04.506Z,147.17
2023-03-29T04:04:04.431Z,146.69
2023-03-29T04:05:04.347Z,150.56
2023-03-29T04:06:04.336Z,162.34
2023-03-29T04:07:04.391Z,162.16
2023-03-29T04:08:04.441Z,155.53
2023-03-29T04:09:04.524Z,151.13
2023-03-29T04:10:04.646Z,159.31
2023-03-29T04:11:04.774Z,161.87
2023-03-29T04:12:04.721Z,161.11
2023-03-29T04:13:04.789Z,157.93
2023-03-29T04:14:04.840Z,158.12
2023-03-29T04:15:04.913Z,159.64
2023-03-29T04:16:05.063Z,157.71
2023-03-29T04:17:05.048Z,153.25
2023-03-29T04:18:05.270Z,160.05
2023-03-29T04:19:05.168Z,155.54
2023-03-29T04:20:05.223Z,159.09
2023-03-29T04:21:05.292Z,164.26
2023-03-29T04:22:05.351Z,165.03
2023-03-29T04:23:05.405Z,161.71
2023-03-29T04:24:05.476Z,161.74
2023-03-29T04:25:05.550Z,154.50
2023-03-29T04:26:05.595Z,152.08
2023-03-29T04:27:05.677Z,160.23
2023-03-29T04:28:05.733Z,150.04
2023-03-29T04:29:05.833Z,161.14
2023-03-29T04:30:05.859Z,158.68
2023-03-29T04:31:06.059Z,163.60
2023-03-29T04:32:05.994Z,154.87
2023-03-29T04:33:06.091Z,158.49
2023-03-29T04:34:06.114Z,150.31
2023-03-29T04:35:06.165Z,154.75
2023-03-29T04:36:06.266Z,148.88
2023-03-29T04:37:06.301Z,155.00
2023-03-29T04:38:06.374Z,154.94
2023-03-29T04:39:06.453Z,150.32
2023-03-29T04:40:06.516Z,151.68
2023-03-29T04:41:06.550Z,150.41
2023-03-29T04:42:06.616Z,157.29
2023-03-29T04:43:06.670Z,150.09
2023-03-29T04:44:06.800Z,154.62
2023-03-29T04:45:06.947Z,149.90
2023-03-29T04:46:06.967Z,153.10
2023-03-29T04:47:06.940Z,151.88
2023-03-29T04:48:07.056Z,151.98
2023-03-29T04:49:07.044Z,160.10
2023-03-29T04:50:07.127Z,163.04
2023-03-29T04:51:07.190Z,150.99
2023-03-29T04:52:07.251Z,158.55
2023-03-29T04:53:07.309Z,160.89
2023-03-29T04:54:07.391Z,159.83
2023-03-29T04:55:07.422Z,164.13
2023-03-29T04:56:07.500Z,171.11
2023-03-29T04:57:07.601Z,168.29
2023-03-29T04:58:07.616Z,166.68
2023-03-29T04:59:07.706Z,160.14
2023-03-29T05:00:07.753Z,156.01
2023-03-29T05:01:07.821Z,162.99
2023-03-29T05:02:07.978Z,161.15
2023-03-29T05:03:08.047Z,153.18
2023-03-29T05:04:08.560Z,156.26
2023-03-29T05:05:08.110Z,161.21
2023-03-29T05:06:08.174Z,165.81
2023-03-29T05:07:08.234Z,164.44
2023-03-29T05:08:08.290Z,159.89
2023-03-29T05:09:08.363Z,161.55
2023-03-29T05:10:08.435Z,167.68
2023-03-29T05:11:08.489Z,170.26
2023-03-29T05:12:08.557Z,169.15
2023-03-29T05:13:08.602Z,168.74
2023-03-29T05:14:08.681Z,174.65
2023-03-29T05:15:08.751Z,170.68
2023-03-29T05:16:08.858Z,171.25
2023-03-29T05:17:08.877Z,170.79
2023-03-29T05:18:08.995Z,176.75
2023-03-29T05:19:09.007Z,174.63
2023-03-29T05:20:09.065Z,172.26
2023-03-29T05:21:09.146Z,175.14
2023-03-29T05:22:09.198Z,172.18
2023-03-29T05:23:09.249Z,171.98
2023-03-29T05:24:09.325Z,177.41
2023-03-29T05:25:09.377Z,177.23
2023-03-29T05:26:09.439Z,178.32
2023-03-29T05:27:09.498Z,179.78
2023-03-29T05:28:09.577Z,163.69
2023-03-29T05:29:09.641Z,169.63
2023-03-29T05:30:09.854Z,185.73
2023-03-29T05:31:09.850Z,176.75
2023-03-29T05:32:09.855Z,187.68
2023-03-29T05:33:09.909Z,184.76
2023-03-29T05:34:09.938Z,200.49
2023-03-29T05:35:10.370Z,206.31
2023-03-29T05:36:10.075Z,206.99
2023-03-29T05:37:10.087Z,209.00
2023-03-29T05:38:10.132Z,213.99
2023-03-29T05:39:10.189Z,213.95
2023-03-29T05:40:10.495Z,217.75
2023-03-29T05:41:10.274Z,221.00
2023-03-29T05:42:10.305Z,222.87
2023-03-29T05:43:10.342Z,221.73
2023-03-29T05:44:10.365Z,216.48
2023-03-29T05:45:10.424Z,216.60
2023-03-29T05:46:10.498Z,220.15
2023-03-29T05:47:10.455Z,225.58
2023-03-29T05:48:10.527Z,235.88
2023-03-29T05:49:10.523Z,241.90
2023-03-29T05:50:10.595Z,246.49
2023-03-29T05:51:10.548Z,249.24
2023-03-29T05:52:10.585Z,250.00
2023-03-29T05:53:10.572Z,250.00
2023-03-29T05:54:10.596Z,247.14
2023-03-29T05:55:10.618Z,245.24
2023-03-29T05:56:10.612Z,247.58
2023-03-29T05:57:10.689Z,250.00
2023-03-29T05:58:10.647Z,249.28
2023-03-29T05:59:10.622Z,249.18
2023-03-29T06:00:10.629Z,250.00
2023-03-29T06:01:10.644Z,248.84
2023-03-29T06:02:10.790Z,248.79
2023-03-29T06:03:18.052Z,243.79
2023-03-29T06:04:11.717Z,244.08
2023-03-29T06:05:10.677Z,244.64
2023-03-29T06:06:10.621Z,246.47
2023-03-29T06:07:10.621Z,249.29
2023-03-29T06:08:10.620Z,254.08
2023-03-29T06:09:10.604Z,249.63
2023-03-29T06:10:10.595Z,247.69
2023-03-29T06:11:10.696Z,249.86
2023-03-29T06:12:10.573Z,249.60
2023-03-29T06:13:10.591Z,249.34
2023-03-29T06:14:10.582Z,245.84
2023-03-29T06:15:10.557Z,243.32
2023-03-29T06:16:10.565Z,247.56
2023-03-29T06:17:10.670Z,250.00
2023-03-29T06:18:10.594Z,248.43
2023-03-29T06:19:10.524Z,250.00
2023-03-29T06:20:10.520Z,249.81
2023-03-29T06:21:10.532Z,248.43
2023-03-29T06:22:11.344Z,249.78
2023-03-29T06:23:10.530Z,248.96
2023-03-29T06:24:10.527Z,250.00
2023-03-29T06:25:10.485Z,241.33
2023-03-29T06:26:10.501Z,242.53
2023-03-29T06:27:10.495Z,246.28
2023-03-29T06:28:10.480Z,234.65
2023-03-29T06:29:10.462Z,240.88
2023-03-29T06:30:10.463Z,247.71
2023-03-29T06:31:10.544Z,247.57
2023-03-29T06:32:10.888Z,240.96
2023-03-29T06:33:10.640Z,242.78
2023-03-29T06:34:10.536Z,244.11
2023-03-29T06:35:10.560Z,247.72
2023-03-29T06:36:10.601Z,249.40
2023-03-29T06:37:10.637Z,250.06
2023-03-29T06:38:10.685Z,250.00
2023-03-29T06:39:10.736Z,249.38
2023-03-29T06:40:10.769Z,249.41
2023-03-29T06:41:10.831Z,292.27
2023-03-29T06:42:20.765Z,290.33
2023-03-29T06:43:11.881Z,291.11
2023-03-29T06:44:10.867Z,296.65
2023-03-29T06:45:10.861Z,311.54
2023-03-29T06:46:10.941Z,304.81
2023-03-29T06:47:10.900Z,287.24
2023-03-29T06:48:11.428Z,257.07
2023-03-29T06:49:10.832Z,250.00
2023-03-29T06:50:10.806Z,248.50
2023-03-29T06:51:10.855Z,233.89
2023-03-29T06:52:11.432Z,225.94
2023-03-29T06:53:10.941Z,225.23
2023-03-29T06:54:10.963Z,221.99
2023-03-29T06:55:11.021Z,221.00
2023-03-29T06:56:11.043Z,209.60
2023-03-29T06:57:11.441Z,207.31
2023-03-29T06:58:11.406Z,207.50
2023-03-29T06:59:11.169Z,210.39
2023-03-29T07:00:11.207Z,205.38
2023-03-29T07:01:11.224Z,207.58
2023-03-29T07:02:11.327Z,207.31
2023-03-29T07:03:11.462Z,204.61
2023-03-29T07:04:11.395Z,199.06
2023-03-29T07:05:11.436Z,198.17
2023-03-29T07:06:11.446Z,198.95
2023-03-29T07:07:11.506Z,204.59
2023-03-29T07:08:11.888Z,206.78
2023-03-29T07:09:11.734Z,209.01
2023-03-29T07:10:11.691Z,209.41
2023-03-29T07:11:11.774Z,209.80
2023-03-29T07:12:11.833Z,209.63
2023-03-29T07:13:11.896Z,209.86
2023-03-29T07:14:11.999Z,209.85
2023-03-29T07:15:12.010Z,209.56
2023-03-29T07:16:12.124Z,201.45
2023-03-29T07:17:12.130Z,198.77
2023-03-29T07:18:12.191Z,203.06
2023-03-29T07:19:12.266Z,204.74
2023-03-29T07:20:12.331Z,204.90
2023-03-29T07:21:12.410Z,204.40
2023-03-29T07:22:12.460Z,203.82
2023-03-29T07:23:12.509Z,199.90
2023-03-29T07:24:12.574Z,197.44
2023-03-29T07:25:12.643Z,200.61
2023-03-29T07:26:12.700Z,202.22
2023-03-29T07:27:12.913Z,211.40
2023-03-29T07:28:12.911Z,210.44
2023-03-29T07:29:12.869Z,202.47
2023-03-29T07:30:12.908Z,199.94
2023-03-29T07:31:12.950Z,201.77
2023-03-29T07:32:13.030Z,202.56
2023-03-29T07:33:13.559Z,200.55
2023-03-29T07:34:13.133Z,200.39
2023-03-29T07:35:13.226Z,202.08
2023-03-29T07:36:13.322Z,202.26
2023-03-29T07:37:13.434Z,201.15
2023-03-29T07:38:13.386Z,199.38
2023-03-29T07:39:13.449Z,200.79
2023-03-29T07:40:13.514Z,199.86
2023-03-29T07:41:13.510Z,198.53
2023-03-29T07:42:13.562Z,198.87
2023-03-29T07:43:13.644Z,197.76
2023-03-29T07:44:13.708Z,197.28
2023-03-29T07:45:13.747Z,197.31
2023-03-29T07:46:13.796Z,196.34
2023-03-29T07:47:13.806Z,195.60
2023-03-29T07:48:13.900Z,196.16
2023-03-29T07:49:13.894Z,194.34
2023-03-29T07:50:14.413Z,194.53
2023-03-29T07:51:13.989Z,194.33
2023-03-29T07:52:14.126Z,194.19
2023-03-29T07:53:14.059Z,197.03
2023-03-29T07:54:14.114Z,205.45
2023-03-29T07:55:14.397Z,203.34
2023-03-29T07:56:14.187Z,203.27
2023-03-29T07:57:14.282Z,203.98
2023-03-29T07:58:14.275Z,202.47
2023-03-29T07:59:14.312Z,202.84
2023-03-29T08:00:14.411Z,203.98
2023-03-29T08:01:17.171Z,205.12
2023-03-29T08:02:14.373Z,205.16
2023-03-29T08:03:14.434Z,205.26
2023-03-29T08:04:14.466Z,204.97
2023-03-29T08:05:14.452Z,202.89
2023-03-29T08:06:14.367Z,198.53
2023-03-29T08:07:15.758Z,202.36
2023-03-29T08:08:14.573Z,195.49
2023-03-29T08:09:14.582Z,194.79
2023-03-29T08:10:14.653Z,196.96
2023-03-29T08:11:14.654Z,198.24
2023-03-29T08:12:14.707Z,199.97
2023-03-29T08:13:14.733Z,199.90
2023-03-29T08:14:14.771Z,199.77
2023-03-29T08:15:14.962Z,197.70
2023-03-29T08:16:14.883Z,199.64
2023-03-29T08:17:14.875Z,201.00
2023-03-29T08:18:14.986Z,199.52
2023-03-29T08:19:14.985Z,196.30
2023-03-29T08:20:15.471Z,195.12
2023-03-29T08:21:15.038Z,180.27
2023-03-29T08:22:15.106Z,183.73
2023-03-29T08:23:15.146Z,185.86
2023-03-29T08:24:15.225Z,188.14
2023-03-29T08:25:15.420Z,187.60
2023-03-29T08:26:15.280Z,188.23
2023-03-29T08:27:15.342Z,193.43
2023-03-29T08:28:15.420Z,194.79
2023-03-29T08:29:15.439Z,193.08
2023-03-29T08:30:15.500Z,196.72
2023-03-29T08:31:15.551Z,197.37
2023-03-29T08:32:15.543Z,198.26
2023-03-29T08:33:15.657Z,115.24
2023-03-29T08:34:15.596Z,95.44
2023-03-29T08:35:15.612Z,121.83
2023-03-29T08:36:15.684Z,127.45
2023-03-29T08:37:15.694Z,136.29
2023-03-29T08:38:15.940Z,142.93
2023-03-29T08:39:16.816Z,154.45
2023-03-29T08:40:15.745Z,160.93
2023-03-29T08:41:15.729Z,157.28
2023-03-29T08:42:15.733Z,158.92
2023-03-29T08:43:15.949Z,157.18
2023-03-29T08:44:15.764Z,162.75
2023-03-29T08:45:15.785Z,167.06
2023-03-29T08:46:15.864Z,168.24
2023-03-29T08:47:15.833Z,168.65
2023-03-29T08:48:15.864Z,165.46
2023-03-29T08:49:15.932Z,170.26
2023-03-29T08:50:15.989Z,172.49
2023-03-29T08:51:16.059Z,171.35
2023-03-29T08:52:16.105Z,171.20
2023-03-29T08:53:16.168Z,175.98
2023-03-29T08:54:16.227Z,178.32
2023-03-29T08:55:16.254Z,180.33
2023-03-29T08:56:16.297Z,178.36
2023-03-29T08:57:16.403Z,178.72
2023-03-29T08:58:16.390Z,179.56
2023-03-29T08:59:16.428Z,181.14
2023-03-29T09:00:16.482Z,182.07
2023-03-29T09:01:16.549Z,180.08
2023-03-29T09:02:16.680Z,179.73
2023-03-29T09:03:16.746Z,180.84
2023-03-29T09:04:16.632Z,179.26
2023-03-29T09:05:16.671Z,179.01
2023-03-29T09:06:16.722Z,181.02
2023-03-29T09:07:16.776Z,181.35
2023-03-29T09:08:16.823Z,178.55
2023-03-29T09:09:16.831Z,178.00
2023-03-29T09:10:16.847Z,179.77
2023-03-29T09:11:16.860Z,182.39
2023-03-29T09:12:16.890Z,181.73
2023-03-29T09:13:17.028Z,181.13
2023-03-29T09:14:16.934Z,181.20
2023-03-29T09:15:16.943Z,176.19
2023-03-29T09:16:17.006Z,175.49
2023-03-29T09:17:16.994Z,177.69
2023-03-29T09:18:17.541Z,176.25
2023-03-29T09:19:17.030Z,174.78
2023-03-29T09:20:17.027Z,178.99
2023-03-29T09:21:17.075Z,178.03
2023-03-29T09:22:17.057Z,182.17
2023-03-29T09:23:17.434Z,196.22
2023-03-29T09:24:17.116Z,199.61
2023-03-29T09:25:17.122Z,189.64
2023-03-29T09:26:17.133Z,183.18
2023-03-29T09:27:17.146Z,180.55
2023-03-29T09:28:17.440Z,176.40
2023-03-29T09:29:17.181Z,175.69
2023-03-29T09:30:17.211Z,173.22
2023-03-29T09:31:17.268Z,170.60
2023-03-29T09:32:17.272Z,177.45
2023-03-29T09:33:17.444Z,178.38
2023-03-29T09:34:17.291Z,180.04
2023-03-29T09:35:17.321Z,181.21
2023-03-29T09:36:17.381Z,183.69
2023-03-29T09:37:17.362Z,183.97
2023-03-29T09:38:17.384Z,185.27
2023-03-29T09:39:17.409Z,184.12
2023-03-29T09:40:17.502Z,185.64
2023-03-29T09:41:17.442Z,186.00
2023-03-29T09:42:17.478Z,186.12
2023-03-29T09:43:17.512Z,183.65
2023-03-29T09:44:29.835Z,184.19
2023-03-29T09:45:18.530Z,184.21
2023-03-29T09:46:17.607Z,184.35
2023-03-29T09:47:17.525Z,184.45
2023-03-29T09:48:17.977Z,182.69
2023-03-29T09:49:17.612Z,181.10
2023-03-29T09:50:30.263Z,180.98
2023-03-29T09:51:18.498Z,181.01
2023-03-29T09:52:17.473Z,179.57
2023-03-29T09:53:17.472Z,178.24
2023-03-29T09:54:17.496Z,174.43
2023-03-29T09:55:17.480Z,173.57
2023-03-29T09:56:17.476Z,171.58
2023-03-29T09:57:17.514Z,169.77
2023-03-29T09:58:17.519Z,169.44
2023-03-29T09:59:17.484Z,167.66
2023-03-29T10:00:17.448Z,166.06
2023-03-29T10:01:17.530Z,166.37
2023-03-29T10:02:17.434Z,165.08
2023-03-29T10:03:17.414Z,165.03
2023-03-29T10:04:17.538Z,165.60
2023-03-29T10:05:17.454Z,166.90
2023-03-29T10:06:17.520Z,165.40
2023-03-29T10:07:17.528Z,162.01
2023-03-29T10:08:19.445Z,161.85
2023-03-29T10:09:17.981Z,161.59
2023-03-29T10:10:17.661Z,164.95
2023-03-29T10:11:17.695Z,163.28
2023-03-29T10:12:17.743Z,162.14
2023-03-29T10:13:17.776Z,161.14
2023-03-29T10:14:17.825Z,162.36
2023-03-29T10:15:29.186Z,161.53
2023-03-29T10:16:18.866Z,161.63
2023-03-29T10:17:17.851Z,161.45
2023-03-29T10:18:17.841Z,159.46
2023-03-29T10:19:17.962Z,158.64
2023-03-29T10:20:17.846Z,160.56
2023-03-29T10:21:17.836Z,150.49
2023-03-29T10:22:17.798Z,151.67
2023-03-29T10:23:17.807Z,153.81
2023-03-29T10:24:17.822Z,153.87
2023-03-29T10:25:17.806Z,107.41
2023-03-29T10:26:17.781Z,63.84
2023-03-29T10:27:17.789Z,30.51
2023-03-29T10:28:17.756Z,9.85
2023-03-29T10:29:17.764Z,21.82
2023-03-29T10:30:17.811Z,2.60
2023-03-29T10:31:17.988Z,22.53
2023-03-29T10:32:17.930Z,18.59
2023-03-29T10:33:17.911Z,19.25
2023-03-29T10:34:17.926Z,21.48
2023-03-29T10:35:17.950Z,26.35
2023-03-29T10:36:18.033Z,40.10
2023-03-29T10:37:18.034Z,48.88
2023-03-29T10:38:18.061Z,59.77
2023-03-29T10:39:18.085Z,69.34
2023-03-29T10:40:18.476Z,76.16
2023-03-29T10:41:18.091Z,84.24
2023-03-29T10:42:18.109Z,92.96
2023-03-29T10:43:18.155Z,92.45
2023-03-29T10:44:18.229Z,100.86
2023-03-29T10:45:18.288Z,97.30
2023-03-29T10:46:18.384Z,103.88
2023-03-29T10:47:18.358Z,106.43
2023-03-29T10:48:18.378Z,115.25
2023-03-29T10:49:18.409Z,109.90
2023-03-29T10:50:18.425Z,117.64
2023-03-29T10:51:18.451Z,113.35
2023-03-29T10:52:18.454Z,130.94
2023-03-29T10:53:18.469Z,142.23
2023-03-29T10:54:18.448Z,145.97
2023-03-29T10:55:18.473Z,123.17
2023-03-29T10:56:18.460Z,101.99
2023-03-29T10:57:19.434Z,104.95
2023-03-29T10:58:18.466Z,105.14
2023-03-29T10:59:18.459Z,99.79
2023-03-29T11:00:18.522Z,113.41
2023-03-29T11:01:18.496Z,127.58
2023-03-29T11:02:18.478Z,141.84
2023-03-29T11:03:20.970Z,143.15
2023-03-29T11:04:18.456Z,142.80
2023-03-29T11:05:18.453Z,139.23
2023-03-29T11:06:18.429Z,147.10
2023-03-29T11:07:18.423Z,149.72
2023-03-29T11:08:18.412Z,153.28
2023-03-29T11:09:18.411Z,156.45
2023-03-29T11:10:18.413Z,153.34
2023-03-29T11:11:18.406Z,160.79
2023-03-29T11:12:18.411Z,163.42
2023-03-29T11:13:18.407Z,165.38
2023-03-29T11:14:18.434Z,153.23
2023-03-29T11:15:18.494Z,143.89
2023-03-29T11:16:18.420Z,125.04
2023-03-29T11:17:18.363Z,153.00
2023-03-29T11:18:18.348Z,157.26
2023-03-29T11:19:18.359Z,140.73
2023-03-29T11:20:18.365Z,153.07
2023-03-29T11:21:18.333Z,159.09
2023-03-29T11:22:18.312Z,167.42
2023-03-29T11:23:18.330Z,139.78
2023-03-29T11:24:18.315Z,111.99
2023-03-29T11:25:18.369Z,105.23
2023-03-29T11:26:18.303Z,96.24
2023-03-29T11:27:18.293Z,89.01
2023-03-29T11:28:18.285Z,80.48
2023-03-29T11:29:18.267Z,80.84
2023-03-29T11:30:18.283Z,92.17
2023-03-29T11:31:18.354Z,94.73
2023-03-29T11:32:18.274Z,100.59
2023-03-29T11:33:18.251Z,109.94
2023-03-29T11:34:18.241Z,114.48
2023-03-29T11:35:18.249Z,130.30
2023-03-29T11:36:18.326Z,136.26
2023-03-29T11:37:18.234Z,145.10
2023-03-29T11:38:18.209Z,135.86
2023-03-29T11:39:18.201Z,132.14
2023-03-29T11:40:18.194Z,141.08
2023-03-29T11:41:18.197Z,142.80
2023-03-29T11:42:18.184Z,144.49
2023-03-29T11:43:18.182Z,147.07
2023-03-29T11:44:18.171Z,147.37
2023-03-29T11:45:18.173Z,148.54
2023-03-29T11:46:18.200Z,149.06
2023-03-29T11:47:18.155Z,149.60
2023-03-29T11:48:18.147Z,148.55
2023-03-29T11:49:18.139Z,149.08
2023-03-29T11:50:18.153Z,149.31
2023-03-29T11:51:18.116Z,151.26
2023-03-29T11:52:18.126Z,150.79
2023-03-29T11:53:18.109Z,150.16
2023-03-29T11:54:18.109Z,150.71
2023-03-29T11:55:18.101Z,151.22
2023-03-29T11:56:18.519Z,151.14
2023-03-29T11:57:18.519Z,149.68
2023-03-29T11:58:18.080Z,150.07
2023-03-29T11:59:18.056Z,148.94
2023-03-29T12:00:18.075Z,149.04
2023-03-29T12:01:18.126Z,141.81
2023-03-29T12:02:18.553Z,133.14
2023-03-29T12:03:18.631Z,142.90
2023-03-29T12:04:18.327Z,150.32
2023-03-29T12:05:18.361Z,151.51
2023-03-29T12:06:18.436Z,153.79
2023-03-29T12:07:18.503Z,150.10
2023-03-29T12:08:19.011Z,152.37
2023-03-29T12:09:18.622Z,158.05
2023-03-29T12:10:18.676Z,162.09
2023-03-29T12:11:18.712Z,162.46
2023-03-29T12:12:18.785Z,164.09
2023-03-29T12:13:19.009Z,167.34
2023-03-29T12:14:18.867Z,170.90
2023-03-29T12:15:18.910Z,172.46
2023-03-29T12:16:19.009Z,170.38
2023-03-29T12:17:19.028Z,179.35
2023-03-29T12:18:19.033Z,185.15
2023-03-29T12:19:19.076Z,185.51
2023-03-29T12:20:19.104Z,183.11
2023-03-29T12:21:19.136Z,189.57
2023-03-29T12:22:19.150Z,189.46
2023-03-29T12:23:19.204Z,186.44
2023-03-29T12:24:19.235Z,182.59
2023-03-29T12:25:21.316Z,185.74
2023-03-29T12:26:19.263Z,184.33
2023-03-29T12:27:19.246Z,158.95
2023-03-29T12:28:19.254Z,151.85
2023-03-29T12:29:19.218Z,138.52
2023-03-29T12:30:19.247Z,123.60